createdAt,value
2016-03-12T00:00:08.888Z,-0.39
2016-03-12T00:01:08.860Z,-0.45
2016-03-12T00:02:08.815Z,-0.41
2016-03-12T00:03:08.818Z,-0.51
2016-03-12T00:04:08.759Z,-0.5
2016-03-12T00:05:08.730Z,-0.45
2016-03-12T00:06:08.753Z,-0.51
2016-03-12T00:07:08.885Z,-0.57
2016-03-12T00:08:08.615Z,-0.55
2016-03-12T00:09:08.413Z,-0.52
2016-03-12T00:10:08.541Z,-0.51
2016-03-12T00:11:08.497Z,-0.47
2016-03-12T00:12:08.469Z,-0.52
2016-03-12T00:13:08.456Z,-0.54
2016-03-12T00:14:08.412Z,-0.5
2016-03-12T00:15:08.351Z,-0.52
2016-03-12T00:16:08.323Z,-0.5
2016-03-12T00:17:08.278Z,-0.48
2016-03-12T00:18:08.235Z,-0.59
2016-03-12T00:19:08.222Z,-0.55
2016-03-12T00:20:08.193Z,-0.55
2016-03-12T00:21:08.149Z,-0.52
2016-03-12T00:22:08.105Z,-0.6
2016-03-12T00:23:08.076Z,-0.5
2016-03-12T00:24:08.047Z,-0.5
2016-03-12T00:25:08.003Z,-0.55
2016-03-12T00:26:07.975Z,-0.5
2016-03-12T00:27:07.931Z,-0.5
2016-03-12T00:28:07.730Z,-0.6
2016-03-12T00:29:07.874Z,-0.54
2016-03-12T00:30:07.829Z,-0.59
2016-03-12T00:31:07.786Z,-0.6
2016-03-12T00:32:07.741Z,-0.54
2016-03-12T00:33:07.713Z,-0.54
2016-03-12T00:34:07.684Z,-0.6
2016-03-12T00:35:07.655Z,-0.6
2016-03-12T00:36:07.596Z,-0.68
2016-03-12T00:37:07.568Z,-0.62
2016-03-12T00:38:07.523Z,-0.63
2016-03-12T00:39:07.510Z,-0.57
2016-03-12T00:40:07.466Z,-0.5
2016-03-12T00:41:07.468Z,-0.51
2016-03-12T00:42:07.409Z,-0.59
2016-03-12T00:43:07.348Z,-0.57
2016-03-12T00:44:07.336Z,-0.6
2016-03-12T00:45:07.276Z,-0.54
2016-03-12T00:46:07.248Z,-0.52
2016-03-12T00:47:07.219Z,-0.55
2016-03-12T00:48:07.175Z,-0.52
2016-03-12T00:49:07.145Z,-0.51
2016-03-12T00:50:07.103Z,-0.55
2016-03-12T00:51:07.073Z,-0.59
2016-03-12T00:52:07.029Z,-0.54
2016-03-12T00:53:07.001Z,-0.55
2016-03-12T00:54:06.957Z,-0.51
2016-03-12T00:55:06.944Z,-0.57
2016-03-12T00:56:06.884Z,-0.57
2016-03-12T00:57:06.839Z,-0.45
2016-03-12T00:58:06.811Z,-0.54
2016-03-12T00:59:06.798Z,-0.55
2016-03-12T01:00:06.738Z,-0.55
2016-03-12T01:01:06.694Z,-0.6
2016-03-12T01:02:06.681Z,-0.52
2016-03-12T01:03:06.621Z,-0.57
2016-03-12T01:04:06.593Z,-0.65
2016-03-12T01:05:06.580Z,-0.52
2016-03-12T01:06:06.520Z,-0.63
2016-03-12T01:07:06.477Z,-0.57
2016-03-12T01:08:06.447Z,-0.57
2016-03-12T01:09:06.404Z,-0.55
2016-03-12T01:10:06.374Z,-0.55
2016-03-12T01:11:06.346Z,-0.63
2016-03-12T01:12:06.318Z,-0.59
2016-03-12T01:13:06.274Z,-0.57
2016-03-12T01:14:06.229Z,-0.6
2016-03-12T01:15:06.216Z,-0.6
2016-03-12T01:16:06.203Z,-0.55
2016-03-12T01:17:06.128Z,-0.5
2016-03-12T01:18:09.756Z,-0.51
2016-03-12T01:19:06.040Z,-0.57
2016-03-12T01:20:06.042Z,-0.6
2016-03-12T01:21:05.982Z,-0.55
2016-03-12T01:22:05.939Z,-0.63
2016-03-12T01:23:05.909Z,-0.68
2016-03-12T01:24:05.881Z,-0.62
2016-03-12T01:25:05.696Z,-0.65
2016-03-12T01:26:05.792Z,-0.62
2016-03-12T01:27:05.764Z,-0.63
2016-03-12T01:28:05.736Z,-0.62
2016-03-12T01:29:05.691Z,-0.54
2016-03-12T01:30:05.663Z,-0.65
2016-03-12T01:31:05.619Z,-0.63
2016-03-12T01:32:05.591Z,-0.65
2016-03-12T01:33:05.546Z,-0.68
2016-03-12T01:34:05.517Z,-0.66
2016-03-12T01:35:05.474Z,-0.66
2016-03-12T01:36:05.444Z,-0.65
2016-03-12T01:37:05.416Z,-0.65
2016-03-12T01:38:05.371Z,-0.65
2016-03-12T01:39:05.343Z,-0.57
2016-03-12T01:40:05.283Z,-0.62
2016-03-12T01:41:05.271Z,-0.65
2016-03-12T01:42:05.242Z,-0.63
2016-03-12T01:43:05.182Z,-0.59
2016-03-12T01:44:05.153Z,-0.68
2016-03-12T01:45:05.109Z,-0.62
2016-03-12T01:46:05.081Z,-0.52
2016-03-12T01:47:05.052Z,-0.51
2016-03-12T01:48:05.008Z,-0.59
2016-03-12T01:49:04.965Z,-0.57
2016-03-12T01:50:04.935Z,-0.57
2016-03-12T01:51:04.892Z,-0.45
2016-03-12T01:52:04.847Z,-0.55
2016-03-12T01:53:04.850Z,-0.52
2016-03-12T01:54:04.790Z,-0.57
2016-03-12T01:55:04.762Z,-0.51
2016-03-12T01:56:04.717Z,-0.51
2016-03-12T01:57:04.672Z,-0.52
2016-03-12T01:58:04.660Z,-0.55
2016-03-12T01:59:04.600Z,-0.54
2016-03-12T02:00:04.572Z,-0.55
2016-03-12T02:01:04.543Z,-0.62
2016-03-12T02:02:04.499Z,-0.55
2016-03-12T02:03:04.502Z,-0.54
2016-03-12T02:04:04.427Z,-0.5
2016-03-12T02:05:04.382Z,-0.6
2016-03-12T02:06:04.369Z,-0.52
2016-03-12T02:07:04.309Z,-0.47
2016-03-12T02:08:04.281Z,-0.45
2016-03-12T02:09:04.268Z,-0.45
2016-03-12T02:10:04.208Z,-0.48
2016-03-12T02:11:04.210Z,-0.48
2016-03-12T02:12:04.151Z,-0.47
2016-03-12T02:13:04.107Z,-0.48
2016-03-12T02:14:04.063Z,-0.47
2016-03-12T02:15:04.034Z,-0.5
2016-03-12T02:16:03.990Z,-0.45
2016-03-12T02:17:03.962Z,-0.54
2016-03-12T02:18:03.918Z,-0.51
2016-03-12T02:19:03.888Z,-0.5
2016-03-12T02:20:03.859Z,-0.47
2016-03-12T02:21:03.815Z,-0.57
2016-03-12T02:22:03.771Z,-0.44
2016-03-12T02:23:03.728Z,-0.48
2016-03-12T02:24:03.698Z,-0.37
2016-03-12T02:25:03.686Z,-0.47
2016-03-12T02:26:03.625Z,-0.36
2016-03-12T02:27:03.613Z,-0.48
2016-03-12T02:28:03.553Z,-0.44
2016-03-12T02:29:03.539Z,-0.36
2016-03-12T02:30:03.497Z,-0.37
2016-03-12T02:31:03.452Z,-0.36
2016-03-12T02:32:03.439Z,-0.34
2016-03-12T02:33:03.379Z,-0.36
2016-03-12T02:34:03.335Z,-0.37
2016-03-12T02:35:03.305Z,-0.34
2016-03-12T02:36:03.263Z,-0.33
2016-03-12T02:37:03.233Z,-0.33
2016-03-12T02:38:03.189Z,-0.37
2016-03-12T02:39:03.160Z,-0.48
2016-03-12T02:40:03.132Z,-0.37
2016-03-12T02:41:03.104Z,-0.39
2016-03-12T02:42:03.043Z,-0.45
2016-03-12T02:43:03.015Z,-0.34
2016-03-12T02:44:02.971Z,-0.33
2016-03-12T02:45:02.943Z,-0.39
2016-03-12T02:46:02.914Z,-0.39
2016-03-12T02:47:02.870Z,-0.45
2016-03-12T02:48:02.840Z,-0.37
2016-03-12T02:49:02.798Z,-0.36
2016-03-12T02:50:02.612Z,-0.42
2016-03-12T02:51:02.724Z,-0.37
2016-03-12T02:52:02.695Z,-0.45
2016-03-12T02:53:02.651Z,-0.37
2016-03-12T02:54:02.622Z,-0.39
2016-03-12T02:55:02.579Z,-0.48
2016-03-12T02:56:02.550Z,-0.59
2016-03-12T02:57:02.506Z,-0.63
2016-03-12T02:58:02.493Z,-0.57
2016-03-12T02:59:02.434Z,-0.6
2016-03-12T03:00:02.405Z,-0.65
2016-03-12T03:01:02.375Z,-0.63
2016-03-12T03:02:02.347Z,-0.68
2016-03-12T03:03:02.303Z,-0.78
2016-03-12T03:04:02.259Z,-0.73
2016-03-12T03:05:02.230Z,-0.81
2016-03-12T03:06:02.202Z,-0.8
2016-03-12T03:07:02.158Z,-0.7
2016-03-12T03:08:02.130Z,-0.83
2016-03-12T03:09:02.069Z,-0.78
2016-03-12T03:10:02.057Z,-0.84
2016-03-12T03:11:02.013Z,-0.84
2016-03-12T03:12:01.985Z,-0.75
2016-03-12T03:13:01.940Z,-0.77
2016-03-12T03:14:01.895Z,-0.81
2016-03-12T03:15:01.867Z,-0.87
2016-03-12T03:16:01.838Z,-0.94
2016-03-12T03:17:01.810Z,-0.95
2016-03-12T03:18:01.765Z,-0.86
2016-03-12T03:19:01.721Z,-1
2016-03-12T03:20:01.692Z,-0.99
2016-03-12T03:21:01.665Z,-1.02
2016-03-12T03:22:01.604Z,-1
2016-03-12T03:23:01.576Z,-1
2016-03-12T03:24:01.548Z,-0.95
2016-03-12T03:25:01.503Z,-0.91
2016-03-12T03:26:01.506Z,-1
2016-03-12T03:27:01.445Z,-1.06
2016-03-12T03:28:01.402Z,-1.05
2016-03-12T03:29:01.373Z,-1.02
2016-03-12T03:30:01.314Z,-1.07
2016-03-12T03:31:01.285Z,-0.87
2016-03-12T03:32:01.241Z,-0.97
2016-03-12T03:33:01.212Z,-0.97
2016-03-12T03:34:01.184Z,-0.97
2016-03-12T03:35:00.967Z,-1
2016-03-12T03:36:01.111Z,-0.97
2016-03-12T03:37:01.067Z,-0.99
2016-03-12T03:38:01.054Z,-0.95
2016-03-12T03:39:01.010Z,-0.97
2016-03-12T03:40:00.965Z,-0.95
2016-03-12T03:41:00.938Z,-0.92
2016-03-12T03:42:00.893Z,-0.94
2016-03-12T03:43:00.864Z,-1
2016-03-12T03:44:00.820Z,-0.89
2016-03-12T03:45:00.776Z,-0.84
2016-03-12T03:46:00.747Z,-0.87
2016-03-12T03:47:00.704Z,-0.95
2016-03-12T03:48:00.674Z,-0.91
2016-03-12T03:49:00.646Z,-0.95
2016-03-12T03:50:00.602Z,-0.95
2016-03-12T03:51:00.589Z,-0.95
2016-03-12T03:52:00.559Z,-0.92
2016-03-12T03:53:00.484Z,-0.97
2016-03-12T03:54:00.456Z,-1.02
2016-03-12T03:55:00.443Z,-1.02
2016-03-12T03:56:00.383Z,-0.99
2016-03-12T03:57:00.370Z,-1.05
2016-03-12T03:58:00.311Z,-1.05
2016-03-12T03:59:00.267Z,-1.05
2016-03-12T04:00:00.253Z,-1.15
2016-03-12T04:01:00.209Z,-1.13
2016-03-12T04:02:00.212Z,-1.09
2016-03-12T04:03:00.137Z,-1.15
2016-03-12T04:04:00.092Z,-1.21
2016-03-12T04:05:00.079Z,-1.2
2016-03-12T04:06:00.020Z,-1.36
2016-03-12T04:07:00.022Z,-1.27
2016-03-12T04:07:59.963Z,-1.17
2016-03-12T04:08:59.933Z,-1.31
2016-03-12T04:09:59.890Z,-1.36
2016-03-12T04:10:59.846Z,-1.2
2016-03-12T04:11:59.802Z,-1.09
2016-03-12T04:12:59.773Z,-1.2
2016-03-12T04:13:59.744Z,-1.1
2016-03-12T04:14:59.700Z,-1.09
2016-03-12T04:15:59.687Z,-1.09
2016-03-12T04:16:59.627Z,-1.12
2016-03-12T04:17:59.582Z,-1.12
2016-03-12T04:18:59.571Z,-1.07
2016-03-12T04:19:59.526Z,-1.09
2016-03-12T04:20:59.482Z,-1.15
2016-03-12T04:21:59.500Z,-1.03
2016-03-12T04:22:59.409Z,-1.15
2016-03-12T04:23:59.365Z,-1.1
2016-03-12T04:24:59.336Z,-1.13
2016-03-12T04:25:59.309Z,-1.18
2016-03-12T04:26:59.279Z,-1.15
2016-03-12T04:27:59.251Z,-1.09
2016-03-12T04:28:59.206Z,-1.09
2016-03-12T04:29:59.162Z,-1.1
2016-03-12T04:30:59.118Z,-1.12
2016-03-12T04:31:59.075Z,-1.09
2016-03-12T04:32:59.061Z,-1.17
2016-03-12T04:33:59.000Z,-1.06
2016-03-12T04:34:58.972Z,-1.15
2016-03-12T04:35:58.944Z,-1.1
2016-03-12T04:36:58.900Z,-1.17
2016-03-12T04:37:58.855Z,-1.21
2016-03-12T04:38:58.828Z,-1.21
2016-03-12T04:39:58.799Z,-1.31
2016-03-12T04:40:58.755Z,-1.23
2016-03-12T04:41:58.741Z,-1.33
2016-03-12T04:42:58.697Z,-1.25
2016-03-12T04:43:58.653Z,-1.36
2016-03-12T04:44:58.640Z,-1.28
2016-03-12T04:45:58.580Z,-1.35
2016-03-12T04:46:58.535Z,-1.33
2016-03-12T04:47:58.508Z,-1.33
2016-03-12T04:48:58.479Z,-1.21
2016-03-12T04:49:58.451Z,-1.21
2016-03-12T04:50:58.422Z,-1.24
2016-03-12T04:51:58.363Z,-1.25
2016-03-12T04:52:58.334Z,-1.24
2016-03-12T04:53:58.289Z,-1.33
2016-03-12T04:54:58.261Z,-1.33
2016-03-12T04:55:58.217Z,-1.39
2016-03-12T04:56:58.173Z,-1.31
2016-03-12T04:57:58.176Z,-1.35
2016-03-12T04:58:58.115Z,-1.38
2016-03-12T04:59:58.071Z,-1.31
2016-03-12T05:00:58.074Z,-1.31
2016-03-12T05:01:58.014Z,-1.36
2016-03-12T05:02:57.970Z,-1.33
2016-03-12T05:03:57.926Z,-1.35
2016-03-12T05:05:01.600Z,-1.33
2016-03-12T05:05:57.869Z,-1.23
2016-03-12T05:07:01.389Z,-1.18
2016-03-12T05:08:02.344Z,-1.13
2016-03-12T05:09:01.801Z,-1.18
2016-03-12T05:10:01.787Z,-1.12
2016-03-12T05:11:01.821Z,-1.09
2016-03-12T05:12:01.745Z,-1.07
2016-03-12T05:13:01.718Z,-1.06
2016-03-12T05:14:01.860Z,-1.17
2016-03-12T05:15:01.660Z,-1.1
2016-03-12T05:16:01.553Z,-1.13
2016-03-12T05:16:58.915Z,-1.13
2016-03-12T05:17:57.506Z,-1.17
2016-03-12T05:18:57.369Z,-1.13
2016-03-12T05:19:57.312Z,-1.05
2016-03-12T05:20:57.286Z,-1.06
2016-03-12T05:21:57.212Z,-1.09
2016-03-12T05:22:57.175Z,-1.1
2016-03-12T05:23:57.126Z,-1.06
2016-03-12T05:24:57.094Z,-1.02
2016-03-12T05:25:56.888Z,-1.07
2016-03-12T05:26:57.026Z,-1
2016-03-12T05:27:56.964Z,-1.07
2016-03-12T05:28:56.933Z,-1.06
2016-03-12T05:29:56.902Z,-1.06
2016-03-12T05:30:56.856Z,-1.1
2016-03-12T05:31:56.826Z,-1.03
2016-03-12T05:32:56.780Z,-1
2016-03-12T05:33:56.751Z,-1.09
2016-03-12T05:34:56.722Z,-1.13
2016-03-12T05:35:56.676Z,-1.18
2016-03-12T05:36:56.631Z,-1.13
2016-03-12T05:37:56.603Z,-1.24
2016-03-12T05:38:56.559Z,-1.2
2016-03-12T05:39:56.514Z,-1.28
2016-03-12T05:40:56.487Z,-1.33
2016-03-12T05:41:56.457Z,-1.24
2016-03-12T05:42:56.414Z,-1.3
2016-03-12T05:43:56.384Z,-1.27
2016-03-12T05:44:56.325Z,-1.35
2016-03-12T05:45:56.312Z,-1.36
2016-03-12T05:46:56.267Z,-1.39
2016-03-12T05:47:56.238Z,-1.3
2016-03-12T05:48:56.210Z,-1.43
2016-03-12T05:49:56.166Z,-1.46
2016-03-12T05:50:56.122Z,-1.38
2016-03-12T05:51:56.093Z,-1.43
2016-03-12T05:52:56.065Z,-1.36
2016-03-12T05:53:56.005Z,-1.49
2016-03-12T05:54:55.977Z,-1.36
2016-03-12T05:55:55.932Z,-1.46
2016-03-12T05:56:55.904Z,-1.43
2016-03-12T05:57:55.860Z,-1.49
2016-03-12T05:58:55.832Z,-1.46
2016-03-12T05:59:55.787Z,-1.43
2016-03-12T06:00:55.757Z,-1.45
2016-03-12T06:01:55.746Z,-1.42
2016-03-12T06:02:55.685Z,-1.42
2016-03-12T06:03:55.641Z,-1.45
2016-03-12T06:04:55.613Z,-1.45
2016-03-12T06:05:55.569Z,-1.49
2016-03-12T06:06:55.540Z,-1.45
2016-03-12T06:07:55.496Z,-1.38
2016-03-12T06:08:55.483Z,-1.36
2016-03-12T06:09:55.423Z,-1.38
2016-03-12T06:10:55.410Z,-1.36
2016-03-12T06:11:55.366Z,-1.41
2016-03-12T06:12:55.322Z,-1.31
2016-03-12T06:13:55.277Z,-1.24
2016-03-12T06:14:55.250Z,-1.17
2016-03-12T06:15:55.220Z,-1.23
2016-03-12T06:16:55.176Z,-1.2
2016-03-12T06:17:55.164Z,-1.2
2016-03-12T06:18:55.119Z,-1.18
2016-03-12T06:19:55.075Z,-1.17
2016-03-12T06:20:55.061Z,-1.18
2016-03-12T06:21:54.986Z,-1.33
2016-03-12T06:22:54.974Z,-1.23
2016-03-12T06:23:54.945Z,-1.18
2016-03-12T06:24:54.885Z,-1.18
2016-03-12T06:25:54.857Z,-1.06
2016-03-12T06:26:54.828Z,-1.12
2016-03-12T06:27:54.785Z,-1.15
2016-03-12T06:28:54.740Z,-1.13
2016-03-12T06:29:54.727Z,-1.12
2016-03-12T06:30:54.668Z,-1.1
2016-03-12T06:31:54.654Z,-1.1
2016-03-12T06:32:54.610Z,-0.99
2016-03-12T06:33:54.565Z,-1.07
2016-03-12T06:34:54.554Z,-1.07
2016-03-12T06:35:54.493Z,-1.09
2016-03-12T06:36:54.449Z,-1.02
2016-03-12T06:37:54.420Z,-0.97
2016-03-12T06:38:54.392Z,-0.95
2016-03-12T06:39:54.363Z,-0.91
2016-03-12T06:40:54.319Z,-0.86
2016-03-12T06:41:54.275Z,-0.83
2016-03-12T06:42:54.246Z,-0.78
2016-03-12T06:43:54.218Z,-0.77
2016-03-12T06:44:54.173Z,-0.66
2016-03-12T06:45:54.161Z,-0.6
2016-03-12T06:46:54.101Z,-0.57
2016-03-12T06:47:54.057Z,-0.55
2016-03-12T06:48:54.044Z,-0.52
2016-03-12T06:49:53.999Z,-0.51
2016-03-12T06:50:53.955Z,-0.45
2016-03-12T06:51:53.942Z,-0.51
2016-03-12T06:52:53.898Z,-0.51
2016-03-12T06:53:53.854Z,-0.36
2016-03-12T06:54:53.825Z,-0.36
2016-03-12T06:55:53.766Z,-0.33
2016-03-12T06:56:53.737Z,-0.34
2016-03-12T06:57:53.708Z,-0.34
2016-03-12T06:58:53.679Z,-0.29
2016-03-12T06:59:53.636Z,-0.34
2016-03-12T07:00:53.623Z,-0.27
2016-03-12T07:01:53.563Z,-0.26
2016-03-12T07:02:53.565Z,-0.34
2016-03-12T07:03:53.506Z,-0.36
2016-03-12T07:04:53.462Z,-0.23
2016-03-12T07:05:53.432Z,-0.23
2016-03-12T07:06:53.405Z,-0.19
2016-03-12T07:07:53.360Z,-0.08
2016-03-12T07:08:53.316Z,-0.18
2016-03-12T07:09:53.303Z,-0.11
2016-03-12T07:10:53.259Z,-0.11
2016-03-12T07:11:53.215Z,-0.12
2016-03-12T07:12:53.186Z,-0.01
2016-03-12T07:13:53.142Z,0.07
2016-03-12T07:14:53.113Z,0.06
2016-03-12T07:15:53.085Z,0.09
2016-03-12T07:16:53.056Z,0.1
2016-03-12T07:17:53.012Z,0.16
2016-03-12T07:18:52.984Z,0.24
2016-03-12T07:19:52.940Z,0.28
2016-03-12T07:20:52.911Z,0.41
2016-03-12T07:21:52.882Z,0.45
2016-03-12T07:22:52.853Z,0.68
2016-03-12T07:23:52.810Z,0.75
2016-03-12T07:24:52.766Z,0.83
2016-03-12T07:25:52.736Z,0.85
2016-03-12T07:26:52.708Z,0.88
2016-03-12T07:27:52.680Z,0.9
2016-03-12T07:28:52.480Z,0.94
2016-03-12T07:29:52.591Z,0.96
2016-03-12T07:30:52.547Z,1.03
2016-03-12T07:31:52.535Z,1
2016-03-12T07:32:52.490Z,1.18
2016-03-12T07:33:52.477Z,1.26
2016-03-12T07:34:52.432Z,1.25
2016-03-12T07:35:52.389Z,1.34
2016-03-12T07:36:52.345Z,1.32
2016-03-12T07:37:52.316Z,1.37
2016-03-12T07:38:52.287Z,1.42
2016-03-12T07:39:52.259Z,1.43
2016-03-12T07:40:52.215Z,1.5
2016-03-12T07:41:52.186Z,1.51
2016-03-12T07:42:52.158Z,1.51
2016-03-12T07:43:52.129Z,1.57
2016-03-12T07:44:52.101Z,1.55
2016-03-12T07:45:51.884Z,1.55
2016-03-12T07:46:52.012Z,1.71
2016-03-12T07:47:51.984Z,1.72
2016-03-12T07:48:51.939Z,1.72
2016-03-12T07:49:51.926Z,1.8
2016-03-12T07:50:51.882Z,1.9
2016-03-12T07:51:51.838Z,2.06
2016-03-12T07:52:51.841Z,2.16
2016-03-12T07:53:51.780Z,2.17
2016-03-12T07:54:51.753Z,2.15
2016-03-12T07:55:51.724Z,2.16
2016-03-12T07:56:51.680Z,2.22
2016-03-12T07:57:51.651Z,2.31
2016-03-12T07:58:51.622Z,2.23
2016-03-12T07:59:51.594Z,2.48
2016-03-12T08:00:51.549Z,2.33
2016-03-12T08:01:51.521Z,2.59
2016-03-12T08:02:51.492Z,2.44
2016-03-12T08:03:51.449Z,2.59
2016-03-12T08:04:51.435Z,2.71
2016-03-12T08:05:51.376Z,2.71
2016-03-12T08:06:51.363Z,2.82
2016-03-12T08:07:51.366Z,2.87
2016-03-12T08:08:51.290Z,2.85
2016-03-12T08:09:51.262Z,2.87
2016-03-12T08:10:51.217Z,2.92
2016-03-12T08:11:51.032Z,3.03
2016-03-12T08:12:51.160Z,3.12
2016-03-12T08:13:51.116Z,3.2
2016-03-12T08:14:51.087Z,3.33
2016-03-12T08:15:51.059Z,3.44
2016-03-12T08:16:51.093Z,3.52
2016-03-12T08:17:51.001Z,3.67
2016-03-12T08:18:50.973Z,3.72
2016-03-12T08:19:50.929Z,3.76
2016-03-12T08:20:50.900Z,3.78
2016-03-12T08:21:50.872Z,3.83
2016-03-12T08:22:50.937Z,3.9
2016-03-12T08:23:50.799Z,4.06
2016-03-12T08:24:50.770Z,4.12
2016-03-12T08:25:50.742Z,4.25
2016-03-12T08:26:50.697Z,4.12
2016-03-12T08:27:50.685Z,4.24
2016-03-12T08:28:50.641Z,4.32
2016-03-12T08:29:50.612Z,4.36
2016-03-12T08:30:50.600Z,4.46
2016-03-12T08:31:50.539Z,4.55
2016-03-12T08:32:50.527Z,4.42
2016-03-12T08:33:50.482Z,4.59
2016-03-12T08:34:50.454Z,4.59
2016-03-12T08:35:50.441Z,4.65
2016-03-12T08:36:50.396Z,4.75
2016-03-12T08:37:50.384Z,4.86
2016-03-12T08:38:50.340Z,4.91
2016-03-12T08:39:50.296Z,4.89
2016-03-12T08:40:50.267Z,4.94
2016-03-12T08:41:50.254Z,4.94
2016-03-12T08:42:50.210Z,4.94
2016-03-12T08:43:50.181Z,4.92
2016-03-12T08:44:50.152Z,4.99
2016-03-12T08:45:50.123Z,5.01
2016-03-12T08:46:50.095Z,5.04
2016-03-12T08:47:50.051Z,5.05
2016-03-12T08:48:50.038Z,5.16
2016-03-12T08:49:49.994Z,5.12
2016-03-12T08:50:49.825Z,5.12
2016-03-12T08:51:49.937Z,5.17
2016-03-12T08:52:49.908Z,5.19
2016-03-12T08:53:50.302Z,5.3
2016-03-12T08:54:49.851Z,5.35
2016-03-12T08:55:49.822Z,5.4
2016-03-12T08:56:49.794Z,5.43
2016-03-12T08:57:49.749Z,5.45
2016-03-12T08:58:49.737Z,5.53
2016-03-12T08:59:49.693Z,5.57
2016-03-12T09:00:49.664Z,5.59
2016-03-12T09:01:49.635Z,5.63
2016-03-12T09:02:49.622Z,5.73
2016-03-12T09:03:49.594Z,5.71
2016-03-12T09:04:49.534Z,5.75
2016-03-12T09:05:49.506Z,5.78
2016-03-12T09:06:49.477Z,5.86
2016-03-12T09:07:49.449Z,6
2016-03-12T09:08:49.420Z,6
2016-03-12T09:09:49.391Z,6
2016-03-12T09:10:49.379Z,5.98
2016-03-12T09:11:49.318Z,6.04
2016-03-12T09:12:49.306Z,6.09
2016-03-12T09:13:49.276Z,6.18
2016-03-12T09:14:49.249Z,6.33
2016-03-12T09:15:49.220Z,6.43
2016-03-12T09:16:49.051Z,6.35
2016-03-12T09:17:49.148Z,6.32
2016-03-12T09:18:49.119Z,6.33
2016-03-12T09:19:49.090Z,6.41
2016-03-12T09:20:49.062Z,6.32
2016-03-12T09:21:49.034Z,6.4
2016-03-12T09:22:49.020Z,6.25
2016-03-12T09:23:48.804Z,6.36
2016-03-12T09:24:48.947Z,6.44
2016-03-12T09:25:48.919Z,6.47
2016-03-12T09:26:48.906Z,6.47
2016-03-12T09:27:48.861Z,6.38
2016-03-12T09:28:48.834Z,6.48
2016-03-12T09:29:48.664Z,6.61
2016-03-12T09:30:48.777Z,6.59
2016-03-12T09:31:48.607Z,6.53
2016-03-12T09:32:48.703Z,6.68
2016-03-12T09:33:48.675Z,6.71
2016-03-12T09:34:48.662Z,6.66
2016-03-12T09:35:48.460Z,6.83
2016-03-12T09:36:48.620Z,6.69
2016-03-12T09:37:48.560Z,6.71
2016-03-12T09:38:48.548Z,6.71
2016-03-12T09:39:48.362Z,6.84
2016-03-12T09:40:48.491Z,6.73
2016-03-12T09:41:48.306Z,6.79
2016-03-12T09:42:48.417Z,6.73
2016-03-12T09:43:48.389Z,6.73
2016-03-12T09:44:48.360Z,6.73
2016-03-12T09:45:48.332Z,6.65
2016-03-12T09:46:48.303Z,6.71
2016-03-12T09:47:48.134Z,6.63
2016-03-12T09:48:48.246Z,6.76
2016-03-12T09:49:48.218Z,6.8
2016-03-12T09:50:48.189Z,6.72
2016-03-12T09:51:48.176Z,6.76
2016-03-12T09:52:48.132Z,6.71
2016-03-12T09:53:48.103Z,6.8
2016-03-12T09:54:48.075Z,6.73
2016-03-12T09:55:47.890Z,6.77
2016-03-12T09:56:48.017Z,6.68
2016-03-12T09:57:47.989Z,6.71
2016-03-12T09:58:47.960Z,6.8
2016-03-12T09:59:47.791Z,6.9
2016-03-12T10:00:47.903Z,6.9
2016-03-12T10:01:47.719Z,7.04
2016-03-12T10:02:47.862Z,6.99
2016-03-12T10:03:47.818Z,7.08
2016-03-12T10:04:47.805Z,7.2
2016-03-12T10:05:47.745Z,7.22
2016-03-12T10:06:47.732Z,7.37
2016-03-12T10:07:47.698Z,7.45
2016-03-12T10:08:47.670Z,7.55
2016-03-12T10:09:47.640Z,7.58
2016-03-12T10:10:47.612Z,7.59
2016-03-12T10:11:47.584Z,7.53
2016-03-12T10:12:47.570Z,7.59
2016-03-12T10:13:47.526Z,7.55
2016-03-12T10:14:47.498Z,7.56
2016-03-12T10:15:47.485Z,7.58
2016-03-12T10:16:47.441Z,7.62
2016-03-12T10:17:47.428Z,7.74
2016-03-12T10:18:47.384Z,7.92
2016-03-12T10:19:47.370Z,7.82
2016-03-12T10:20:47.327Z,7.74
2016-03-12T10:21:47.298Z,7.6
2016-03-12T10:22:47.270Z,7.6
2016-03-12T10:23:47.241Z,7.6
2016-03-12T10:24:47.212Z,7.79
2016-03-12T10:25:47.183Z,7.71
2016-03-12T10:26:47.171Z,7.56
2016-03-12T10:27:47.127Z,7.67
2016-03-12T10:28:47.098Z,7.6
2016-03-12T10:29:47.086Z,7.67
2016-03-12T10:30:47.041Z,7.84
2016-03-12T10:31:47.027Z,7.55
2016-03-12T10:32:46.999Z,7.35
2016-03-12T10:33:46.971Z,7.55
2016-03-12T10:34:46.926Z,7.69
2016-03-12T10:35:46.913Z,7.81
2016-03-12T10:36:46.884Z,7.84
2016-03-12T10:37:46.851Z,7.85
2016-03-12T10:38:46.822Z,7.89
2016-03-12T10:39:46.825Z,7.85
2016-03-12T10:40:46.764Z,7.75
2016-03-12T10:41:46.737Z,7.77
2016-03-12T10:42:46.708Z,7.77
2016-03-12T10:43:46.680Z,7.6
2016-03-12T10:44:46.667Z,7.63
2016-03-12T10:45:46.622Z,7.72
2016-03-12T10:46:46.593Z,7.75
2016-03-12T10:47:46.581Z,7.77
2016-03-12T10:48:46.536Z,7.81
2016-03-12T10:49:46.508Z,7.87
2016-03-12T10:50:46.480Z,7.99
2016-03-12T10:51:46.451Z,7.93
2016-03-12T10:52:46.454Z,8.07
2016-03-12T10:53:46.393Z,7.96
2016-03-12T10:54:46.366Z,7.99
2016-03-12T10:55:46.337Z,8.03
2016-03-12T10:56:46.308Z,7.82
2016-03-12T10:57:46.295Z,7.87
2016-03-12T10:58:46.266Z,7.84
2016-03-12T10:59:46.238Z,7.82
2016-03-12T11:00:46.209Z,7.77
2016-03-12T11:01:46.181Z,7.67
2016-03-12T11:02:46.136Z,7.69
2016-03-12T11:03:46.124Z,7.6
2016-03-12T11:04:46.095Z,7.52
2016-03-12T11:05:46.067Z,7.63
2016-03-12T11:06:46.054Z,7.63
2016-03-12T11:07:46.009Z,7.69
2016-03-12T11:08:45.981Z,7.62
2016-03-12T11:09:45.952Z,7.56
2016-03-12T11:10:45.924Z,7.34
2016-03-12T11:11:45.895Z,7.49
2016-03-12T11:12:45.867Z,7.32
2016-03-12T11:13:45.838Z,7.44
2016-03-12T11:14:45.809Z,7.56
2016-03-12T11:15:45.781Z,7.53
2016-03-12T11:16:45.752Z,7.37
2016-03-12T11:17:45.725Z,7.35
2016-03-12T11:18:45.695Z,7.34
2016-03-12T11:19:45.666Z,7.26
2016-03-12T11:20:45.638Z,7.4
2016-03-12T11:21:45.616Z,7.4
2016-03-12T11:22:45.705Z,7.4
2016-03-12T11:23:45.520Z,7.27
2016-03-12T11:24:46.383Z,7.31
2016-03-12T11:25:45.514Z,7.34
2016-03-12T11:26:45.469Z,7.34
2016-03-12T11:27:45.441Z,7.4
2016-03-12T11:28:45.428Z,7.37
2016-03-12T11:29:45.385Z,7.34
2016-03-12T11:30:45.355Z,7.4
2016-03-12T11:31:45.326Z,7.58
2016-03-12T11:32:45.314Z,7.6
2016-03-12T11:33:45.270Z,7.55
2016-03-12T11:34:45.241Z,7.44
2016-03-12T11:35:45.213Z,7.42
2016-03-12T11:36:45.184Z,7.49
2016-03-12T11:37:45.171Z,7.52
2016-03-12T11:38:45.173Z,7.67
2016-03-12T11:39:45.099Z,7.69
2016-03-12T11:40:45.070Z,7.67
2016-03-12T11:41:45.057Z,7.78
2016-03-12T11:42:45.012Z,7.69
2016-03-12T11:43:44.984Z,7.6
2016-03-12T11:44:44.956Z,7.47
2016-03-12T11:45:44.927Z,7.38
2016-03-12T11:46:44.915Z,7.26
2016-03-12T11:47:44.870Z,7.16
2016-03-12T11:48:44.842Z,7.24
2016-03-12T11:49:44.813Z,7.24
2016-03-12T11:50:44.784Z,7.38
2016-03-12T11:51:44.756Z,7.52
2016-03-12T11:52:44.727Z,7.45
2016-03-12T11:53:44.745Z,7.53
2016-03-12T11:54:44.686Z,7.45
2016-03-12T11:55:44.641Z,7.58
2016-03-12T11:56:44.613Z,7.56
2016-03-12T11:57:44.585Z,7.58
2016-03-12T11:58:44.572Z,7.6
2016-03-12T11:59:44.527Z,7.58
2016-03-12T12:00:44.343Z,7.47
2016-03-12T12:01:44.486Z,7.32
2016-03-12T12:02:44.442Z,7.15
2016-03-12T12:03:44.413Z,7.12
2016-03-12T12:04:44.384Z,7.07
2016-03-12T12:05:44.371Z,7.08
2016-03-12T12:06:44.327Z,7.05
2016-03-12T12:07:44.298Z,7.09
2016-03-12T12:08:44.333Z,7.01
2016-03-12T12:09:44.242Z,7.17
2016-03-12T12:10:44.213Z,7.15
2016-03-12T12:11:44.200Z,7.13
2016-03-12T12:12:44.156Z,7.2
2016-03-12T12:13:44.128Z,7.05
2016-03-12T12:14:44.114Z,7.09
2016-03-12T12:15:44.086Z,7.15
2016-03-12T12:16:44.042Z,7.22
2016-03-12T12:17:44.013Z,7.17
2016-03-12T12:18:44.016Z,7.22
2016-03-12T12:19:43.956Z,7.37
2016-03-12T12:20:43.928Z,7.27
2016-03-12T12:21:43.900Z,7.17
2016-03-12T12:22:43.870Z,7.15
2016-03-12T12:23:43.873Z,7.24
2016-03-12T12:24:43.814Z,7.29
2016-03-12T12:25:43.800Z,7.34
2016-03-12T12:26:43.755Z,7.24
2016-03-12T12:27:43.728Z,7.23
2016-03-12T12:28:43.714Z,7.38
2016-03-12T12:29:43.671Z,7.53
2016-03-12T12:30:43.642Z,7.41
2016-03-12T12:31:43.613Z,7.52
2016-03-12T12:32:43.600Z,7.35
2016-03-12T12:33:43.556Z,7.34
2016-03-12T12:34:43.544Z,7.29
2016-03-12T12:35:43.515Z,7.26
2016-03-12T12:36:43.471Z,7.24
2016-03-12T12:37:43.473Z,7.34
2016-03-12T12:38:43.413Z,7.37
2016-03-12T12:39:43.384Z,7.35
2016-03-12T12:40:43.356Z,7.32
2016-03-12T12:41:43.328Z,7.34
2016-03-12T12:42:43.315Z,7.24
2016-03-12T12:43:43.270Z,7.22
2016-03-12T12:44:43.242Z,7.13
2016-03-12T12:45:43.214Z,7.09
2016-03-12T12:46:43.184Z,6.97
2016-03-12T12:47:43.156Z,6.99
2016-03-12T12:48:43.142Z,7.04
2016-03-12T12:49:43.100Z,7.01
2016-03-12T12:50:43.070Z,7.08
2016-03-12T12:51:43.042Z,7.09
2016-03-12T12:52:43.014Z,7.12
2016-03-12T12:53:42.985Z,7.01
2016-03-12T12:54:42.941Z,7.07
2016-03-12T12:55:42.928Z,6.95
2016-03-12T12:56:43.087Z,7.01
2016-03-12T12:57:42.871Z,6.87
2016-03-12T12:58:42.857Z,6.89
2016-03-12T12:59:42.829Z,6.99
2016-03-12T13:00:42.785Z,6.98
2016-03-12T13:01:42.741Z,7.07
2016-03-12T13:02:42.728Z,7.07
2016-03-12T13:03:42.700Z,6.77
2016-03-12T13:04:42.671Z,6.72
2016-03-12T13:05:42.642Z,6.79
2016-03-12T13:06:42.614Z,6.86